Dutchess County Airport
KPOU : rendu visible

Aérodrome :











RETROUVEZ-NOUS SUR...

 
LOGIN :

S'inscrire | Disclaimer

   EN    FR    IT 

 









Légende :    VFR   VFR Marginal   IFR   IFR Intensif   IFR Très Intensif
Visi : 
Plafond : 
>= 8 km
>= 3000ft
5 à 8 km
1000 à 3000 ft
1500m à 5 km
500 à 1000 ft
800 à 1500m
200 à 500 ft
< 800m
< 200 ft
Symboles :   Orages  Brouillard  Fortes neiges  Fortes précipitations  Vent > 20 kt






- Altitude de l'aérodrome : 165 ft
- Code IATA : POU


KPOU - Dutchess County

DERNIER METAR :
  • 231053Z AUTO 00000KT 9SM CLR M07/M09 A3019 RMK AO2 SLP222 T10671089

METARs EXPIRÉS :
  • 230953Z AUTO 00000KT 10SM CLR M06/M09 A3019 RMK AO2 SLP221 T10611089
  • 230853Z AUTO 04003KT 10SM CLR M06/M09 A3018 RMK AO2 SLP218 T10611089 53002

TAF KPOU
Valide du 23 à 06h jusqu'au 24 à 06h UTC


230532Z 2306/2406 VRB03KT P6SM SKC
FM231500 23006KT P6SM SKC
FM240000 VRB03KT P6SM SKC



MET'MAP, la Météo Aéronautique d'un coup d'oeil ! - Copyright ORBIFLY Décembre 2007 - Disclaimer

ORBIFLY MET'MAP TEAM :

Programmation & Développement : Alexandra Zaïnal
Sur une idée originale de : Baudouin d'Aumeries
Assistance à la programmation : Marc-Olivier Méhu
Soutien technique & logistique : Manuel Goepfert

Contact : metmap@orbifly.com




SOURCES & CREDITS :

   NOAA       Earth
Advisory